sensor_id;sensor_type;location;lat;lon;timestamp;pressure;altitude;pressure_sealevel;temperature;humidity
21182;BME280;10749;46.296;7.524;2023-01-25T00:01:29;96110.75;;;-0.54;50.88
21182;BME280;10749;46.296;7.524;2023-01-25T00:03:54;96108.25;;;-0.55;50.71
21182;BME280;10749;46.296;7.524;2023-01-25T00:06:19;96105.97;;;-0.61;50.94
21182;BME280;10749;46.296;7.524;2023-01-25T00:08:49;96107.72;;;-0.62;50.84
21182;BME280;10749;46.296;7.524;2023-01-25T00:11:14;96104.38;;;-0.64;50.99
21182;BME280;10749;46.296;7.524;2023-01-25T00:13:41;96105.88;;;-0.60;50.69
21182;BME280;10749;46.296;7.524;2023-01-25T00:16:06;96095.72;;;-0.64;50.59
21182;BME280;10749;46.296;7.524;2023-01-25T00:18:32;96091.13;;;-0.75;50.99
21182;BME280;10749;46.296;7.524;2023-01-25T00:20:57;96099.47;;;-0.85;51.11
21182;BME280;10749;46.296;7.524;2023-01-25T00:23:22;96093.59;;;-0.89;51.03
21182;BME280;10749;46.296;7.524;2023-01-25T00:25:47;96093.09;;;-0.96;51.01
21182;BME280;10749;46.296;7.524;2023-01-25T00:28:13;96096.59;;;-0.97;51.27
21182;BME280;10749;46.296;7.524;2023-01-25T00:30:38;96102.94;;;-1.02;51.04
21182;BME280;10749;46.296;7.524;2023-01-25T00:35:42;96093.84;;;-1.11;50.71
21182;BME280;10749;46.296;7.524;2023-01-25T00:38:26;96101.03;;;-1.16;50.83
21182;BME280;10749;46.296;7.524;2023-01-25T00:40:52;96103.06;;;-1.21;51.16
21182;BME280;10749;46.296;7.524;2023-01-25T00:43:17;96092.50;;;-1.18;50.94
21182;BME280;10749;46.296;7.524;2023-01-25T00:45:43;96095.03;;;-1.16;50.77
21182;BME280;10749;46.296;7.524;2023-01-25T00:48:08;96100.75;;;-1.10;50.84
21182;BME280;10749;46.296;7.524;2023-01-25T00:50:35;96099.66;;;-1.06;50.99
21182;BME280;10749;46.296;7.524;2023-01-25T00:53:01;96091.88;;;-1.06;51.10
21182;BME280;10749;46.296;7.524;2023-01-25T00:55:26;96097.06;;;-1.06;50.98
21182;BME280;10749;46.296;7.524;2023-01-25T00:57:51;96101.75;;;-1.12;50.82
21182;BME280;10749;46.296;7.524;2023-01-25T01:00:17;96102.72;;;-1.15;50.56
21182;BME280;10749;46.296;7.524;2023-01-25T01:02:42;96096.19;;;-1.22;50.18
21182;BME280;10749;46.296;7.524;2023-01-25T01:05:07;96096.56;;;-1.29;50.38
21182;BME280;10749;46.296;7.524;2023-01-25T01:07:33;96093.59;;;-1.39;50.83
21182;BME280;10749;46.296;7.524;2023-01-25T01:09:58;96096.97;;;-1.37;50.89
21182;BME280;10749;46.296;7.524;2023-01-25T01:12:24;96095.13;;;-1.35;50.74
21182;BME280;10749;46.296;7.524;2023-01-25T01:14:49;96079.69;;;-1.38;51.09
21182;BME280;10749;46.296;7.524;2023-01-25T01:17:15;96087.25;;;-1.33;50.95
21182;BME280;10749;46.296;7.524;2023-01-25T01:19:40;96090.75;;;-1.34;51.18
21182;BME280;10749;46.296;7.524;2023-01-25T01:22:05;96094.22;;;-1.34;51.17
21182;BME280;10749;46.296;7.524;2023-01-25T01:24:31;96094.94;;;-1.32;51.34
21182;BME280;10749;46.296;7.524;2023-01-25T01:26:56;96093.97;;;-1.29;51.36
21182;BME280;10749;46.296;7.524;2023-01-25T01:29:21;96085.56;;;-1.34;51.35
21182;BME280;10749;46.296;7.524;2023-01-25T01:31:49;96079.22;;;-1.29;51.52
21182;BME280;10749;46.296;7.524;2023-01-25T01:34:16;96074.78;;;-1.27;51.54
21182;BME280;10749;46.296;7.524;2023-01-25T01:36:41;96076.53;;;-1.27;51.47
21182;BME280;10749;46.296;7.524;2023-01-25T01:39:07;96068.84;;;-1.29;51.44
21182;BME280;10749;46.296;7.524;2023-01-25T01:41:33;96059.97;;;-1.25;51.33
21182;BME280;10749;46.296;7.524;2023-01-25T01:43:58;96047.91;;;-1.26;50.76
21182;BME280;10749;46.296;7.524;2023-01-25T01:46:28;96044.38;;;-1.25;50.82
21182;BME280;10749;46.296;7.524;2023-01-25T01:54:08;96030.97;;;-1.33;51.83
21182;BME280;10749;46.296;7.524;2023-01-25T01:56:54;96020.34;;;-1.28;51.17
21182;BME280;10749;46.296;7.524;2023-01-25T01:59:26;96013.22;;;-1.25;51.15
21182;BME280;10749;46.296;7.524;2023-01-25T02:01:53;96007.84;;;-1.22;51.35
21182;BME280;10749;46.296;7.524;2023-01-25T02:04:19;95999.22;;;-1.22;51.67
21182;BME280;10749;46.296;7.524;2023-01-25T02:07:04;96007.50;;;-1.16;51.46
21182;BME280;10749;46.296;7.524;2023-01-25T02:09:33;96004.19;;;-1.18;51.49
21182;BME280;10749;46.296;7.524;2023-01-25T02:12:00;96012.88;;;-1.19;51.55
21182;BME280;10749;46.296;7.524;2023-01-25T02:14:27;96018.25;;;-1.22;51.49
21182;BME280;10749;46.296;7.524;2023-01-25T02:16:53;96014.13;;;-1.26;51.33
21182;BME280;10749;46.296;7.524;2023-01-25T02:19:36;96029.88;;;-1.29;51.42
21182;BME280;10749;46.296;7.524;2023-01-25T02:22:03;96037.81;;;-1.32;51.65
21182;BME280;10749;46.296;7.524;2023-01-25T02:24:37;96039.81;;;-1.37;51.62
21182;BME280;10749;46.296;7.524;2023-01-25T02:27:04;96032.28;;;-1.42;51.71
21182;BME280;10749;46.296;7.524;2023-01-25T02:29:29;96028.06;;;-1.44;51.41
21182;BME280;10749;46.296;7.524;2023-01-25T02:32:01;96022.41;;;-1.52;51.72
21182;BME280;10749;46.296;7.524;2023-01-25T02:34:27;96021.81;;;-1.57;51.78
21182;BME280;10749;46.296;7.524;2023-01-25T02:36:53;96027.16;;;-1.60;51.82
21182;BME280;10749;46.296;7.524;2023-01-25T02:39:18;96018.31;;;-1.56;51.67
21182;BME280;10749;46.296;7.524;2023-01-25T02:41:45;96024.34;;;-1.56;51.40
21182;BME280;10749;46.296;7.524;2023-01-25T02:44:20;96021.28;;;-1.64;51.87
21182;BME280;10749;46.296;7.524;2023-01-25T02:46:47;96025.47;;;-1.61;52.04
21182;BME280;10749;46.296;7.524;2023-01-25T02:49:13;96011.75;;;-1.63;51.72
21182;BME280;10749;46.296;7.524;2023-01-25T02:51:41;96014.19;;;-1.60;51.69
21182;BME280;10749;46.296;7.524;2023-01-25T02:54:08;96001.66;;;-1.69;52.13
21182;BME280;10749;46.296;7.524;2023-01-25T02:56:34;96004.44;;;-1.72;52.21
21182;BME280;10749;46.296;7.524;2023-01-25T02:58:59;96012.03;;;-1.69;52.07
21182;BME280;10749;46.296;7.524;2023-01-25T03:01:31;96009.22;;;-1.65;51.61
21182;BME280;10749;46.296;7.524;2023-01-25T03:03:56;95995.25;;;-1.62;51.81
21182;BME280;10749;46.296;7.524;2023-01-25T03:06:21;95995.16;;;-1.61;51.83
21182;BME280;10749;46.296;7.524;2023-01-25T03:08:47;95983.03;;;-1.60;52.21
21182;BME280;10749;46.296;7.524;2023-01-25T03:11:12;95981.94;;;-1.56;51.84
21182;BME280;10749;46.296;7.524;2023-01-25T03:13:37;95986.97;;;-1.53;51.95
21182;BME280;10749;46.296;7.524;2023-01-25T03:16:06;95974.69;;;-1.50;51.80
21182;BME280;10749;46.296;7.524;2023-01-25T03:18:33;95970.25;;;-1.48;51.89
21182;BME280;10749;46.296;7.524;2023-01-25T03:21:15;95972.78;;;-1.46;51.94
21182;BME280;10749;46.296;7.524;2023-01-25T03:23:41;95967.25;;;-1.40;52.07
21182;BME280;10749;46.296;7.524;2023-01-25T03:26:09;95962.84;;;-1.38;52.11
21182;BME280;10749;46.296;7.524;2023-01-25T03:28:36;95968.03;;;-1.38;52.36
21182;BME280;10749;46.296;7.524;2023-01-25T03:31:02;95971.97;;;-1.31;52.04
21182;BME280;10749;46.296;7.524;2023-01-25T03:33:27;95982.88;;;-1.24;52.25
21182;BME280;10749;46.296;7.524;2023-01-25T03:35:53;95993.19;;;-1.23;51.93
21182;BME280;10749;46.296;7.524;2023-01-25T03:38:19;95994.59;;;-1.33;51.31
21182;BME280;10749;46.296;7.524;2023-01-25T03:40:45;95998.91;;;-1.49;51.65
21182;BME280;10749;46.296;7.524;2023-01-25T03:43:11;95997.94;;;-1.64;51.96
21182;BME280;10749;46.296;7.524;2023-01-25T03:45:36;95998.47;;;-1.74;52.13
21182;BME280;10749;46.296;7.524;2023-01-25T03:48:01;95995.03;;;-1.75;52.09
21182;BME280;10749;46.296;7.524;2023-01-25T03:50:26;95996.81;;;-1.75;51.74
21182;BME280;10749;46.296;7.524;2023-01-25T03:53:28;95998.09;;;-1.84;51.61
21182;BME280;10749;46.296;7.524;2023-01-25T03:55:58;95990.53;;;-1.89;51.58
21182;BME280;10749;46.296;7.524;2023-01-25T03:58:23;95976.66;;;-1.88;51.47
21182;BME280;10749;46.296;7.524;2023-01-25T04:00:49;95983.53;;;-1.87;51.82
21182;BME280;10749;46.296;7.524;2023-01-25T04:03:14;95980.00;;;-1.86;52.12
21182;BME280;10749;46.296;7.524;2023-01-25T04:05:41;95976.72;;;-1.89;52.05
21182;BME280;10749;46.296;7.524;2023-01-25T04:08:07;95975.75;;;-1.87;51.84
21182;BME280;10749;46.296;7.524;2023-01-25T04:10:32;95979.41;;;-1.91;52.08
21182;BME280;10749;46.296;7.524;2023-01-25T04:12:57;95978.03;;;-1.98;52.37
21182;BME280;10749;46.296;7.524;2023-01-25T04:15:22;95973.44;;;-1.93;52.16
21182;BME280;10749;46.296;7.524;2023-01-25T04:17:48;95967.66;;;-1.98;52.37
21182;BME280;10749;46.296;7.524;2023-01-25T04:20:13;95966.97;;;-2.01;52.37
21182;BME280;10749;46.296;7.524;2023-01-25T04:22:38;95962.84;;;-2.05;52.50
21182;BME280;10749;46.296;7.524;2023-01-25T04:25:04;95960.72;;;-1.97;52.13
21182;BME280;10749;46.296;7.524;2023-01-25T04:27:29;95968.44;;;-1.96;51.76
21182;BME280;10749;46.296;7.524;2023-01-25T04:29:55;95965.06;;;-1.98;51.69
21182;BME280;10749;46.296;7.524;2023-01-25T04:32:20;95961.38;;;-1.94;52.29
21182;BME280;10749;46.296;7.524;2023-01-25T04:34:45;95956.06;;;-1.91;52.55
21182;BME280;10749;46.296;7.524;2023-01-25T04:37:10;95955.81;;;-1.86;52.37
21182;BME280;10749;46.296;7.524;2023-01-25T04:39:36;95951.75;;;-1.74;52.33
21182;BME280;10749;46.296;7.524;2023-01-25T04:42:01;95957.47;;;-1.68;52.31
21182;BME280;10749;46.296;7.524;2023-01-25T04:44:26;95954.94;;;-1.69;52.64
21182;BME280;10749;46.296;7.524;2023-01-25T04:46:51;95951.13;;;-1.62;52.36
21182;BME280;10749;46.296;7.524;2023-01-25T04:49:17;95959.84;;;-1.63;51.85
21182;BME280;10749;46.296;7.524;2023-01-25T04:51:42;95956.47;;;-1.65;51.90
21182;BME280;10749;46.296;7.524;2023-01-25T04:54:07;95963.66;;;-1.70;52.35
21182;BME280;10749;46.296;7.524;2023-01-25T04:56:33;95955.72;;;-1.67;52.08
21182;BME280;10749;46.296;7.524;2023-01-25T04:58:59;95954.13;;;-1.70;52.32
21182;BME280;10749;46.296;7.524;2023-01-25T05:01:24;95962.28;;;-1.77;52.51
21182;BME280;10749;46.296;7.524;2023-01-25T05:03:50;95959.09;;;-1.82;52.51
21182;BME280;10749;46.296;7.524;2023-01-25T05:06:15;95960.75;;;-1.81;52.19
21182;BME280;10749;46.296;7.524;2023-01-25T05:08:40;95967.81;;;-1.83;52.43
21182;BME280;10749;46.296;7.524;2023-01-25T05:11:05;95966.06;;;-1.83;52.47
21182;BME280;10749;46.296;7.524;2023-01-25T05:13:31;95973.44;;;-1.93;52.68
21182;BME280;10749;46.296;7.524;2023-01-25T05:15:56;95963.53;;;-2.02;52.68
21182;BME280;10749;46.296;7.524;2023-01-25T05:18:22;95957.59;;;-2.04;52.75
21182;BME280;10749;46.296;7.524;2023-01-25T05:20:53;95958.34;;;-2.02;52.75
21182;BME280;10749;46.296;7.524;2023-01-25T05:23:18;95957.72;;;-2.07;52.92
21182;BME280;10749;46.296;7.524;2023-01-25T05:25:43;95959.56;;;-2.09;52.86
21182;BME280;10749;46.296;7.524;2023-01-25T05:28:27;95948.28;;;-2.08;52.71
21182;BME280;10749;46.296;7.524;2023-01-25T05:30:52;95957.97;;;-2.11;52.32
21182;BME280;10749;46.296;7.524;2023-01-25T05:33:18;95947.97;;;-2.19;52.12
21182;BME280;10749;46.296;7.524;2023-01-25T05:35:43;95965.28;;;-2.19;52.39
21182;BME280;10749;46.296;7.524;2023-01-25T05:38:08;95968.13;;;-2.24;52.82
21182;BME280;10749;46.296;7.524;2023-01-25T05:40:33;95964.59;;;-2.23;52.90
21182;BME280;10749;46.296;7.524;2023-01-25T05:42:59;95962.69;;;-2.19;52.87
21182;BME280;10749;46.296;7.524;2023-01-25T05:45:24;95953.25;;;-2.20;52.97
21182;BME280;10749;46.296;7.524;2023-01-25T05:47:54;95960.63;;;-2.13;52.98
21182;BME280;10749;46.296;7.524;2023-01-25T05:50:20;95956.06;;;-2.08;52.96
21182;BME280;10749;46.296;7.524;2023-01-25T05:52:46;95951.47;;;-2.03;53.14
21182;BME280;10749;46.296;7.524;2023-01-25T05:55:11;95962.00;;;-2.06;53.22
21182;BME280;10749;46.296;7.524;2023-01-25T05:57:36;95964.31;;;-2.00;53.07
21182;BME280;10749;46.296;7.524;2023-01-25T06:00:04;95958.88;;;-1.95;52.70
21182;BME280;10749;46.296;7.524;2023-01-25T06:02:30;95957.38;;;-1.99;52.99
21182;BME280;10749;46.296;7.524;2023-01-25T06:04:56;95949.59;;;-1.99;53.03
21182;BME280;10749;46.296;7.524;2023-01-25T06:07:21;95942.78;;;-2.02;53.26
21182;BME280;10749;46.296;7.524;2023-01-25T06:09:47;95933.16;;;-2.00;52.36
21182;BME280;10749;46.296;7.524;2023-01-25T06:12:12;95935.00;;;-2.02;51.91
21182;BME280;10749;46.296;7.524;2023-01-25T06:14:37;95927.66;;;-2.11;51.98
21182;BME280;10749;46.296;7.524;2023-01-25T06:17:03;95924.31;;;-2.13;52.41
21182;BME280;10749;46.296;7.524;2023-01-25T06:19:28;95927.81;;;-2.14;52.78
21182;BME280;10749;46.296;7.524;2023-01-25T06:21:53;95929.19;;;-2.07;53.09
21182;BME280;10749;46.296;7.524;2023-01-25T06:24:18;95936.69;;;-2.01;53.12
21182;BME280;10749;46.296;7.524;2023-01-25T06:26:44;95927.81;;;-1.97;52.42
21182;BME280;10749;46.296;7.524;2023-01-25T06:29:09;95917.50;;;-1.98;52.54
21182;BME280;10749;46.296;7.524;2023-01-25T06:31:34;95918.97;;;-1.93;52.89
21182;BME280;10749;46.296;7.524;2023-01-25T06:34:00;95929.19;;;-1.90;52.40
21182;BME280;10749;46.296;7.524;2023-01-25T06:36:28;95922.00;;;-1.84;52.43
21182;BME280;10749;46.296;7.524;2023-01-25T06:38:54;95923.44;;;-1.79;52.59
21182;BME280;10749;46.296;7.524;2023-01-25T06:41:20;95925.09;;;-1.78;52.90
21182;BME280;10749;46.296;7.524;2023-01-25T06:43:49;95932.75;;;-1.75;53.23
21182;BME280;10749;46.296;7.524;2023-01-25T06:46:14;95930.56;;;-1.82;53.05
21182;BME280;10749;46.296;7.524;2023-01-25T06:48:40;95932.63;;;-1.89;53.04
21182;BME280;10749;46.296;7.524;2023-01-25T06:51:10;95925.06;;;-1.94;52.80
21182;BME280;10749;46.296;7.524;2023-01-25T06:53:39;95927.22;;;-2.02;53.04
21182;BME280;10749;46.296;7.524;2023-01-25T06:56:10;95916.31;;;-2.08;53.19
21182;BME280;10749;46.296;7.524;2023-01-25T06:58:36;95915.25;;;-2.04;53.11
21182;BME280;10749;46.296;7.524;2023-01-25T07:01:07;95912.03;;;-2.09;53.29
21182;BME280;10749;46.296;7.524;2023-01-25T07:03:36;95907.75;;;-2.10;53.41
21182;BME280;10749;46.296;7.524;2023-01-25T07:06:04;95912.66;;;-2.04;52.99
21182;BME280;10749;46.296;7.524;2023-01-25T07:08:30;95906.28;;;-1.99;53.09
21182;BME280;10749;46.296;7.524;2023-01-25T07:10:59;95911.47;;;-1.99;53.21
21182;BME280;10749;46.296;7.524;2023-01-25T07:13:25;95910.50;;;-1.96;53.18
21182;BME280;10749;46.296;7.524;2023-01-25T07:15:58;95909.34;;;-1.91;53.35
21182;BME280;10749;46.296;7.524;2023-01-25T07:18:25;95911.13;;;-1.91;53.42
21182;BME280;10749;46.296;7.524;2023-01-25T07:20:51;95903.91;;;-1.86;53.54
21182;BME280;10749;46.296;7.524;2023-01-25T07:23:18;95901.84;;;-1.79;53.74
21182;BME280;10749;46.296;7.524;2023-01-25T07:25:47;95901.50;;;-1.73;53.76
21182;BME280;10749;46.296;7.524;2023-01-25T07:28:14;95903.81;;;-1.67;53.79
21182;BME280;10749;46.296;7.524;2023-01-25T07:30:40;95899.03;;;-1.59;53.83
21182;BME280;10749;46.296;7.524;2023-01-25T07:33:06;95901.47;;;-1.56;53.26
21182;BME280;10749;46.296;7.524;2023-01-25T07:35:33;95897.53;;;-1.63;53.18
21182;BME280;10749;46.296;7.524;2023-01-25T07:37:58;95919.13;;;-1.63;53.11
21182;BME280;10749;46.296;7.524;2023-01-25T07:40:23;95906.91;;;-1.61;53.32
21182;BME280;10749;46.296;7.524;2023-01-25T07:42:50;95901.47;;;-1.56;53.70
21182;BME280;10749;46.296;7.524;2023-01-25T07:45:15;95889.69;;;-1.46;53.87
21182;BME280;10749;46.296;7.524;2023-01-25T07:47:40;95895.38;;;-1.40;53.91
21182;BME280;10749;46.296;7.524;2023-01-25T07:50:06;95887.94;;;-1.30;53.79
21182;BME280;10749;46.296;7.524;2023-01-25T07:52:32;95894.56;;;-1.24;53.89
21182;BME280;10749;46.296;7.524;2023-01-25T07:54:57;95897.56;;;-1.32;54.08
21182;BME280;10749;46.296;7.524;2023-01-25T07:57:23;95892.22;;;-1.29;53.61
21182;BME280;10749;46.296;7.524;2023-01-25T07:59:49;95897.72;;;-1.35;53.41
21182;BME280;10749;46.296;7.524;2023-01-25T08:02:14;95889.34;;;-1.40;53.36
21182;BME280;10749;46.296;7.524;2023-01-25T08:04:40;95892.13;;;-1.43;53.45
21182;BME280;10749;46.296;7.524;2023-01-25T08:07:06;95897.31;;;-1.43;53.87
21182;BME280;10749;46.296;7.524;2023-01-25T08:09:32;95885.09;;;-1.41;53.75
21182;BME280;10749;46.296;7.524;2023-01-25T08:11:57;95892.03;;;-1.42;53.94
21182;BME280;10749;46.296;7.524;2023-01-25T08:14:23;95896.66;;;-1.31;53.99
21182;BME280;10749;46.296;7.524;2023-01-25T08:16:48;95894.22;;;-1.18;54.13
21182;BME280;10749;46.296;7.524;2023-01-25T08:19:14;95887.88;;;-1.13;53.59
21182;BME280;10749;46.296;7.524;2023-01-25T08:21:40;95884.31;;;-1.12;53.40
21182;BME280;10749;46.296;7.524;2023-01-25T08:24:06;95876.63;;;-1.13;53.90
21182;BME280;10749;46.296;7.524;2023-01-25T08:26:33;95888.72;;;-1.12;54.09
21182;BME280;10749;46.296;7.524;2023-01-25T08:28:58;95881.41;;;-1.06;54.02
21182;BME280;10749;46.296;7.524;2023-01-25T08:31:26;95876.44;;;-0.95;53.91
21182;BME280;10749;46.296;7.524;2023-01-25T08:33:52;95879.47;;;-1.02;54.33
21182;BME280;10749;46.296;7.524;2023-01-25T08:36:18;95879.38;;;-1.01;54.56
21182;BME280;10749;46.296;7.524;2023-01-25T08:38:47;95877.19;;;-0.93;53.97
21182;BME280;10749;46.296;7.524;2023-01-25T08:41:17;95870.75;;;-1.01;54.21
21182;BME280;10749;46.296;7.524;2023-01-25T08:43:44;95860.78;;;-0.93;54.22
21182;BME280;10749;46.296;7.524;2023-01-25T08:46:09;95862.19;;;-0.87;54.24
21182;BME280;10749;46.296;7.524;2023-01-25T08:48:35;95858.84;;;-0.89;54.45
21182;BME280;10749;46.296;7.524;2023-01-25T08:51:01;95872.59;;;-0.87;54.46
21182;BME280;10749;46.296;7.524;2023-01-25T08:53:30;95867.72;;;-0.94;54.67
21182;BME280;10749;46.296;7.524;2023-01-25T08:56:08;95864.22;;;-0.93;54.18
21182;BME280;10749;46.296;7.524;2023-01-25T08:58:36;95871.22;;;-0.95;54.00
21182;BME280;10749;46.296;7.524;2023-01-25T09:01:04;95855.16;;;-1.01;54.19
21182;BME280;10749;46.296;7.524;2023-01-25T09:03:30;95864.13;;;-1.07;54.48
21182;BME280;10749;46.296;7.524;2023-01-25T09:05:56;95853.66;;;-1.05;54.58
21182;BME280;10749;46.296;7.524;2023-01-25T09:08:21;95858.00;;;-1.06;54.54
21182;BME280;10749;46.296;7.524;2023-01-25T09:10:46;95850.81;;;-1.01;54.60
21182;BME280;10749;46.296;7.524;2023-01-25T09:13:12;95840.16;;;-0.96;54.51
21182;BME280;10749;46.296;7.524;2023-01-25T09:15:38;95824.38;;;-0.93;54.31
21182;BME280;10749;46.296;7.524;2023-01-25T09:18:03;95829.31;;;-0.88;54.16
21182;BME280;10749;46.296;7.524;2023-01-25T09:20:29;95830.50;;;-0.94;54.53
21182;BME280;10749;46.296;7.524;2023-01-25T09:22:54;95831.41;;;-0.95;54.78
21182;BME280;10749;46.296;7.524;2023-01-25T09:25:20;95833.03;;;-0.93;54.62
21182;BME280;10749;46.296;7.524;2023-01-25T09:27:48;95839.31;;;-0.97;54.69
21182;BME280;10749;46.296;7.524;2023-01-25T09:30:15;95833.59;;;-1.03;54.84
21182;BME280;10749;46.296;7.524;2023-01-25T09:32:40;95829.50;;;-1.07;54.80
21182;BME280;10749;46.296;7.524;2023-01-25T09:35:05;95827.94;;;-1.10;54.76
21182;BME280;10749;46.296;7.524;2023-01-25T09:37:31;95825.00;;;-1.04;54.27
21182;BME280;10749;46.296;7.524;2023-01-25T09:39:56;95823.66;;;-1.11;54.34
21182;BME280;10749;46.296;7.524;2023-01-25T09:42:43;95822.47;;;-1.05;54.68
21182;BME280;10749;46.296;7.524;2023-01-25T09:45:23;95818.41;;;-0.95;54.96
21182;BME280;10749;46.296;7.524;2023-01-25T09:53:26;95816.16;;;-0.56;54.81
21182;BME280;10749;46.296;7.524;2023-01-25T09:55:58;95815.16;;;-0.39;54.93
21182;BME280;10749;46.296;7.524;2023-01-25T09:58:30;95811.38;;;-0.19;54.59
21182;BME280;10749;46.296;7.524;2023-01-25T10:03:54;95809.53;;;-0.03;54.52
21182;BME280;10749;46.296;7.524;2023-01-25T10:06:23;95810.66;;;0.07;54.77
21182;BME280;10749;46.296;7.524;2023-01-25T10:09:04;95801.34;;;0.17;54.91
21182;BME280;10749;46.296;7.524;2023-01-25T10:11:36;95799.09;;;0.25;55.01
21182;BME280;10749;46.296;7.524;2023-01-25T10:14:10;95801.81;;;0.24;55.16
21182;BME280;10749;46.296;7.524;2023-01-25T10:19:14;95790.84;;;0.33;54.98
21182;BME280;10749;46.296;7.524;2023-01-25T10:21:47;95790.44;;;0.39;55.14
21182;BME280;10749;46.296;7.524;2023-01-25T10:24:23;95790.16;;;0.43;55.29
21182;BME280;10749;46.296;7.524;2023-01-25T10:27:01;95788.19;;;0.47;55.15
21182;BME280;10749;46.296;7.524;2023-01-25T10:29:30;95783.75;;;0.49;54.78
21182;BME280;10749;46.296;7.524;2023-01-25T10:32:11;95780.19;;;0.50;54.75
21182;BME280;10749;46.296;7.524;2023-01-25T10:34:47;95775.31;;;0.58;55.17
21182;BME280;10749;46.296;7.524;2023-01-25T10:37:19;95776.22;;;0.71;55.25
21182;BME280;10749;46.296;7.524;2023-01-25T10:42:40;95758.88;;;0.84;55.38
21182;BME280;10749;46.296;7.524;2023-01-25T10:45:12;95756.31;;;0.97;55.51
21182;BME280;10749;46.296;7.524;2023-01-25T10:47:41;95754.25;;;1.02;55.22
21182;BME280;10749;46.296;7.524;2023-01-25T10:50:07;95754.00;;;1.19;54.94
21182;BME280;10749;46.296;7.524;2023-01-25T10:52:32;95741.16;;;1.29;55.26
21182;BME280;10749;46.296;7.524;2023-01-25T10:55:17;95739.13;;;1.59;55.36
21182;BME280;10749;46.296;7.524;2023-01-25T10:57:46;95735.03;;;2.06;55.72
21182;BME280;10749;46.296;7.524;2023-01-25T11:00:22;95735.78;;;2.44;55.27
21182;BME280;10749;46.296;7.524;2023-01-25T11:02:48;95721.00;;;2.56;55.67
21182;BME280;10749;46.296;7.524;2023-01-25T11:05:43;95710.81;;;2.88;55.46
21182;BME280;10749;46.296;7.524;2023-01-25T11:08:33;95709.03;;;3.12;55.77
21182;BME280;10749;46.296;7.524;2023-01-25T11:10:59;95705.06;;;3.30;55.89
21182;BME280;10749;46.296;7.524;2023-01-25T11:13:32;95696.03;;;3.45;55.74
21182;BME280;10749;46.296;7.524;2023-01-25T11:18:31;95685.00;;;3.64;55.88
21182;BME280;10749;46.296;7.524;2023-01-25T11:21:13;95679.78;;;3.86;55.82
21182;BME280;10749;46.296;7.524;2023-01-25T11:26:38;95679.41;;;4.02;55.89
21182;BME280;10749;46.296;7.524;2023-01-25T11:29:10;95668.38;;;4.09;55.96
21182;BME280;10749;46.296;7.524;2023-01-25T11:31:36;95665.34;;;4.25;55.70
21182;BME280;10749;46.296;7.524;2023-01-25T11:34:10;95654.38;;;4.31;55.63
21182;BME280;10749;46.296;7.524;2023-01-25T11:39:40;95646.22;;;4.13;55.51
21182;BME280;10749;46.296;7.524;2023-01-25T11:55:54;95626.47;;;2.97;54.53
21182;BME280;10749;46.296;7.524;2023-01-25T12:01:36;95626.00;;;3.03;54.67
21182;BME280;10749;46.296;7.524;2023-01-25T12:07:09;95603.22;;;3.16;54.49
21182;BME280;10749;46.296;7.524;2023-01-25T12:23:47;95563.75;;;4.81;54.53
21182;BME280;10749;46.296;7.524;2023-01-25T12:26:21;95558.50;;;5.23;54.84
21182;BME280;10749;46.296;7.524;2023-01-25T12:29:03;95557.56;;;5.64;54.86
21182;BME280;10749;46.296;7.524;2023-01-25T12:31:42;95557.16;;;5.89;54.91
21182;BME280;10749;46.296;7.524;2023-01-25T12:34:19;95550.25;;;5.97;54.81
21182;BME280;10749;46.296;7.524;2023-01-25T12:36:47;95552.50;;;6.21;54.64
21182;BME280;10749;46.296;7.524;2023-01-25T12:39:20;95542.31;;;6.37;54.58
21182;BME280;10749;46.296;7.524;2023-01-25T12:41:54;95544.38;;;6.43;54.58
21182;BME280;10749;46.296;7.524;2023-01-25T12:44:45;95542.72;;;6.33;54.33
21182;BME280;10749;46.296;7.524;2023-01-25T12:47:32;95531.22;;;6.24;54.07
21182;BME280;10749;46.296;7.524;2023-01-25T12:50:20;95531.81;;;6.37;53.95
21182;BME280;10749;46.296;7.524;2023-01-25T12:52:56;95520.59;;;6.45;53.55
21182;BME280;10749;46.296;7.524;2023-01-25T12:55:22;95522.09;;;6.28;53.38
21182;BME280;10749;46.296;7.524;2023-01-25T12:58:14;95514.34;;;6.46;53.67
21182;BME280;10749;46.296;7.524;2023-01-25T13:04:01;95496.53;;;6.49;53.42
21182;BME280;10749;46.296;7.524;2023-01-25T13:11:51;95495.28;;;5.75;52.57
21182;BME280;10749;46.296;7.524;2023-01-25T13:16:53;95494.09;;;5.89;52.47
21182;BME280;10749;46.296;7.524;2023-01-25T13:19:39;95498.00;;;6.04;52.00
21182;BME280;10749;46.296;7.524;2023-01-25T13:22:08;95496.06;;;6.06;52.56
21182;BME280;10749;46.296;7.524;2023-01-25T13:27:30;95492.78;;;6.33;52.59
21182;BME280;10749;46.296;7.524;2023-01-25T13:29:56;95489.75;;;6.37;52.57
21182;BME280;10749;46.296;7.524;2023-01-25T13:37:26;95484.47;;;6.09;52.20
21182;BME280;10749;46.296;7.524;2023-01-25T13:40:03;95477.19;;;5.82;51.74
21182;BME280;10749;46.296;7.524;2023-01-25T13:42:30;95469.41;;;5.61;51.70
21182;BME280;10749;46.296;7.524;2023-01-25T13:45:00;95472.44;;;5.56;51.81
21182;BME280;10749;46.296;7.524;2023-01-25T13:47:34;95468.72;;;5.69;51.84
21182;BME280;10749;46.296;7.524;2023-01-25T13:53:24;95465.78;;;5.52;51.77
21182;BME280;10749;46.296;7.524;2023-01-25T13:55:55;95459.81;;;5.41;51.48
21182;BME280;10749;46.296;7.524;2023-01-25T13:58:25;95470.97;;;5.33;51.22
21182;BME280;10749;46.296;7.524;2023-01-25T14:03:24;95458.41;;;4.97;51.01
21182;BME280;10749;46.296;7.524;2023-01-25T14:05:51;95458.47;;;4.86;51.19
21182;BME280;10749;46.296;7.524;2023-01-25T14:08:18;95460.72;;;4.70;50.96
21182;BME280;10749;46.296;7.524;2023-01-25T14:10:45;95458.63;;;4.63;51.14
21182;BME280;10749;46.296;7.524;2023-01-25T14:13:15;95459.63;;;4.51;51.17
21182;BME280;10749;46.296;7.524;2023-01-25T14:15:54;95465.31;;;4.56;50.92
21182;BME280;10749;46.296;7.524;2023-01-25T14:18:20;95464.09;;;4.60;51.19
21182;BME280;10749;46.296;7.524;2023-01-25T14:20:48;95455.81;;;4.55;50.93
21182;BME280;10749;46.296;7.524;2023-01-25T14:23:34;95465.47;;;4.55;50.78
21182;BME280;10749;46.296;7.524;2023-01-25T14:26:00;95460.03;;;4.47;50.83
21182;BME280;10749;46.296;7.524;2023-01-25T14:28:28;95468.50;;;4.39;50.64
21182;BME280;10749;46.296;7.524;2023-01-25T14:30:55;95463.38;;;4.17;50.97
21182;BME280;10749;46.296;7.524;2023-01-25T14:33:29;95457.56;;;4.13;50.51
21182;BME280;10749;46.296;7.524;2023-01-25T14:36:08;95461.06;;;4.03;50.59
21182;BME280;10749;46.296;7.524;2023-01-25T14:38:38;95467.50;;;3.99;51.05